createdAt,value
2023-11-28T00:01:25.526Z,8.73
2023-11-28T00:03:52.859Z,8.37
2023-11-28T00:06:20.312Z,10.53
2023-11-28T00:08:48.612Z,9.00
2023-11-28T00:11:20.169Z,9.17
2023-11-28T00:13:47.804Z,10.83
2023-11-28T00:16:15.192Z,10.70
2023-11-28T00:18:42.333Z,9.43
2023-11-28T00:21:09.589Z,8.23
2023-11-28T00:23:37.035Z,9.77
2023-11-28T00:26:04.358Z,9.60
2023-11-28T00:28:31.548Z,9.23
2023-11-28T00:30:58.675Z,9.93
2023-11-28T00:33:25.703Z,9.20
2023-11-28T00:35:52.757Z,10.50
2023-11-28T00:38:19.795Z,8.73
2023-11-28T05:38:49.400Z,15.50
2023-11-28T05:41:16.580Z,14.60
2023-11-28T05:43:43.668Z,15.03
2023-11-28T05:46:10.751Z,13.50
2023-11-28T05:48:38.599Z,13.97
2023-11-28T05:51:06.342Z,13.73
2023-11-28T05:53:33.732Z,14.17
2023-11-28T05:56:01.010Z,13.37
2023-11-28T05:58:28.260Z,13.33
2023-11-28T06:00:55.452Z,15.50
2023-11-28T06:03:24.144Z,19.73
2023-11-28T06:05:51.191Z,20.00
2023-11-28T06:08:18.514Z,16.80
2023-11-28T06:10:46.063Z,13.73
2023-11-28T06:13:14.265Z,10.90
2023-11-28T06:15:41.314Z,13.37
2023-11-28T06:18:11.414Z,14.57
2023-11-28T06:20:38.640Z,12.70
2023-11-28T06:23:06.777Z,11.03
2023-11-28T06:25:34.279Z,11.40
2023-11-28T06:28:01.328Z,12.13
2023-11-28T06:30:28.954Z,12.60
2023-11-28T06:32:56.592Z,13.10
2023-11-28T06:35:23.823Z,13.10
2023-11-28T06:37:50.964Z,13.97
2023-11-28T06:40:22.033Z,12.93
2023-11-28T06:42:49.106Z,12.43
2023-11-28T06:45:17.369Z,11.80
2023-11-28T06:47:44.575Z,11.17
2023-11-28T06:50:11.876Z,11.70
2023-11-28T06:52:39.534Z,13.30
2023-11-28T06:55:08.183Z,10.07
2023-11-28T06:57:36.333Z,10.57
2023-11-28T07:00:04.603Z,10.10
2023-11-28T07:02:34.491Z,12.10
2023-11-28T07:05:01.661Z,10.30
2023-11-28T07:07:32.878Z,10.13
2023-11-28T07:09:59.931Z,14.73
2023-11-28T07:12:27.023Z,11.70
2023-11-28T07:14:54.067Z,10.47
2023-11-28T07:17:24.033Z,10.83
2023-11-28T07:19:51.194Z,8.90
2023-11-28T07:22:18.360Z,8.90
2023-11-28T07:24:48.638Z,9.57
2023-11-28T07:27:15.873Z,10.47
2023-11-28T07:29:43.027Z,10.80
2023-11-28T07:32:11.443Z,14.57
2023-11-28T07:34:39.304Z,12.83
2023-11-28T07:37:06.470Z,15.37
2023-11-28T07:39:33.822Z,12.30
2023-11-28T07:42:03.026Z,13.30
2023-11-28T07:44:31.185Z,13.03
2023-11-28T07:46:58.946Z,12.77
2023-11-28T07:49:26.197Z,13.90
2023-11-28T07:51:53.523Z,14.43
2023-11-28T07:54:23.203Z,14.83
2023-11-28T07:56:50.737Z,16.80
2023-11-28T07:59:19.072Z,16.27
2023-11-28T08:01:46.195Z,15.50
2023-11-28T08:04:13.386Z,16.07
2023-11-28T08:06:42.032Z,16.23
2023-11-28T08:09:09.880Z,14.60
2023-11-28T08:11:36.941Z,15.20
2023-11-28T08:14:04.223Z,13.63
2023-11-28T08:16:32.787Z,14.13
2023-11-28T08:18:59.924Z,19.80
2023-11-28T08:21:27.705Z,14.93
2023-11-28T08:23:56.219Z,15.33
2023-11-28T08:26:24.302Z,13.33
2023-11-28T08:28:53.137Z,17.77
2023-11-28T08:31:27.965Z,17.10
2023-11-28T08:33:55.157Z,12.90
2023-11-28T08:36:22.787Z,13.67
2023-11-28T08:38:50.496Z,13.17
2023-11-28T08:41:19.167Z,17.63
2023-11-28T08:43:46.380Z,15.57
2023-11-28T08:46:16.980Z,15.83
2023-11-28T08:48:45.012Z,14.90
2023-11-28T08:51:12.198Z,13.63
2023-11-28T08:53:39.310Z,14.47
2023-11-28T08:56:13.137Z,10.83
2023-11-28T08:58:41.142Z,11.93
2023-11-28T09:01:08.446Z,10.30
2023-11-28T09:03:35.761Z,12.13
2023-11-28T09:06:03.237Z,12.87
2023-11-28T09:08:30.536Z,11.57
2023-11-28T09:10:58.376Z,10.30
2023-11-28T09:13:27.996Z,9.47
2023-11-28T09:15:55.672Z,10.67
2023-11-28T09:18:23.324Z,9.47
2023-11-28T09:20:50.984Z,11.40
2023-11-28T09:23:18.226Z,9.97
2023-11-28T09:25:52.669Z,11.03
2023-11-28T09:28:24.671Z,10.17
2023-11-28T09:30:54.388Z,9.93
2023-11-28T09:33:22.773Z,10.60
2023-11-28T09:35:50.427Z,9.83
2023-11-28T09:38:17.748Z,11.07
2023-11-28T09:40:45.103Z,14.47
2023-11-28T09:43:12.368Z,12.57
2023-11-28T09:45:41.660Z,10.70
2023-11-28T09:48:14.288Z,11.00
2023-11-28T09:50:45.291Z,11.33
2023-11-28T09:53:13.818Z,11.30
2023-11-28T09:55:42.549Z,11.33
2023-11-28T09:58:10.828Z,11.50
2023-11-28T10:00:40.281Z,12.53
2023-11-28T10:03:07.548Z,13.67
2023-11-28T10:05:34.713Z,11.70
2023-11-28T10:08:02.476Z,12.20
2023-11-28T10:10:32.492Z,11.87
2023-11-28T10:12:59.689Z,13.23
2023-11-28T10:15:27.440Z,12.07
2023-11-28T10:17:55.800Z,12.10
2023-11-28T10:20:25.829Z,12.93
2023-11-28T10:22:55.230Z,11.77
2023-11-28T10:25:25.646Z,13.20
2023-11-28T10:28:00.194Z,13.60
2023-11-28T10:30:29.123Z,15.73
2023-11-28T10:33:00.313Z,17.07
2023-11-28T10:35:44.134Z,15.63
2023-11-28T10:38:16.389Z,19.57
2023-11-28T10:40:45.401Z,17.73
2023-11-28T10:43:12.644Z,16.93
2023-11-28T10:45:45.570Z,17.03
2023-11-28T10:48:14.135Z,15.70
2023-11-28T10:50:45.512Z,17.83
2023-11-28T10:53:17.039Z,18.17
2023-11-28T10:55:56.513Z,18.10
2023-11-28T10:58:23.994Z,17.90
2023-11-28T11:00:55.351Z,17.60
2023-11-28T11:03:24.750Z,18.00
2023-11-28T11:05:51.985Z,17.17
2023-11-28T11:08:23.270Z,18.60
2023-11-28T11:10:54.962Z,17.53
2023-11-28T11:13:47.298Z,16.60
2023-11-28T11:16:42.783Z,15.93
2023-11-28T11:19:11.167Z,16.67
2023-11-28T11:21:48.462Z,15.50
2023-11-28T11:24:19.859Z,13.80
2023-11-28T11:26:50.525Z,16.13
2023-11-28T11:29:26.568Z,13.23
2023-11-28T11:31:58.670Z,14.10
2023-11-28T11:34:49.162Z,14.57
2023-11-28T11:37:30.819Z,13.90
2023-11-28T11:40:00.853Z,14.10
2023-11-28T11:42:35.524Z,14.23
2023-11-28T11:45:05.685Z,13.57
2023-11-28T11:47:38.050Z,15.40
2023-11-28T11:50:08.003Z,16.43
2023-11-28T11:52:37.146Z,14.83
2023-11-28T11:55:13.400Z,17.17
2023-11-28T11:57:47.893Z,17.10
2023-11-28T12:00:16.777Z,18.20
2023-11-28T12:02:46.686Z,16.63
2023-11-28T12:05:16.097Z,17.63
2023-11-28T12:07:44.656Z,18.20
2023-11-28T12:10:14.171Z,17.63
2023-11-28T12:12:42.909Z,14.83
2023-11-28T12:15:13.562Z,18.00
2023-11-28T12:17:41.965Z,17.07
2023-11-28T12:20:10.977Z,18.50
2023-11-28T12:22:38.482Z,19.83
2023-11-28T12:25:06.052Z,15.67
2023-11-28T12:27:35.169Z,19.10
2023-11-28T12:30:02.871Z,19.10
2023-11-28T12:32:35.075Z,19.20
2023-11-28T12:35:06.091Z,17.83
2023-11-28T12:37:33.138Z,18.00
2023-11-28T12:40:01.248Z,14.83
2023-11-28T12:42:28.835Z,14.87
2023-11-28T12:44:59.361Z,17.83
2023-11-28T12:47:28.331Z,18.57
2023-11-28T12:49:56.976Z,16.20
2023-11-28T12:52:29.151Z,19.17
2023-11-28T12:54:57.422Z,16.43
2023-11-28T12:57:27.267Z,16.97
2023-11-28T12:59:54.781Z,15.47
2023-11-28T13:02:23.102Z,16.63
2023-11-28T13:04:50.488Z,16.57
2023-11-28T13:07:33.147Z,13.80
2023-11-28T13:10:06.417Z,13.63
2023-11-28T13:12:34.334Z,14.20
2023-11-28T13:15:01.739Z,15.13
2023-11-28T13:17:33.442Z,15.80
2023-11-28T13:20:01.218Z,13.83
2023-11-28T13:22:31.015Z,14.87
2023-11-28T13:24:58.070Z,13.43
2023-11-28T13:27:25.090Z,15.13
2023-11-28T13:29:52.197Z,12.17
2023-11-28T13:32:19.311Z,13.73
2023-11-28T13:34:47.535Z,11.70
2023-11-28T13:37:14.731Z,12.43
2023-11-28T13:39:44.163Z,13.60
2023-11-28T13:42:12.977Z,11.50
2023-11-28T13:44:40.493Z,13.53
2023-11-28T13:47:08.492Z,13.17
2023-11-28T13:49:38.290Z,15.77
2023-11-28T13:52:05.802Z,15.03
2023-11-28T13:54:34.480Z,14.17
2023-11-28T13:57:01.707Z,14.63
2023-11-28T13:59:31.878Z,15.67
2023-11-28T14:02:00.425Z,14.90
2023-11-28T14:04:28.674Z,15.50
2023-11-28T14:06:55.925Z,13.83
2023-11-28T14:09:23.901Z,12.63
2023-11-28T14:11:52.278Z,16.83
2023-11-28T14:14:19.878Z,15.43
2023-11-28T14:16:47.282Z,13.70
2023-11-28T14:19:16.088Z,18.47
2023-11-28T14:21:43.620Z,16.50
2023-11-28T14:24:10.774Z,15.97
2023-11-28T14:26:37.924Z,16.27
2023-11-28T14:29:05.200Z,15.07
2023-11-28T14:31:32.526Z,15.60
2023-11-28T14:34:02.053Z,15.87
2023-11-28T14:36:30.731Z,14.37
2023-11-28T14:38:57.758Z,15.40
2023-11-28T14:41:25.020Z,15.40
2023-11-28T14:43:52.655Z,17.63
2023-11-28T14:46:20.061Z,17.77
2023-11-28T14:48:47.300Z,15.97
2023-11-28T14:51:14.518Z,15.40
2023-11-28T14:53:41.774Z,17.57
2023-11-28T14:56:09.516Z,15.77
2023-11-28T14:58:37.273Z,18.60
2023-11-28T15:01:04.748Z,16.90
2023-11-28T15:03:32.022Z,19.93
2023-11-28T15:06:03.942Z,18.50
2023-11-28T15:08:32.937Z,19.63
2023-11-28T15:11:00.527Z,17.27
2023-11-28T15:13:28.338Z,17.30
2023-11-28T15:15:55.470Z,20.93
2023-11-28T15:18:22.911Z,17.47
2023-11-28T15:20:50.549Z,20.50
2023-11-28T15:23:17.968Z,18.60
2023-11-28T15:25:47.313Z,20.73
2023-11-28T15:28:18.888Z,16.13
2023-11-28T15:30:46.458Z,21.03
2023-11-28T15:33:15.158Z,18.57
2023-11-28T15:35:42.828Z,13.07
2023-11-28T15:38:09.947Z,15.33
2023-11-28T15:40:37.174Z,13.60
2023-11-28T15:43:05.457Z,14.97
2023-11-28T15:45:33.507Z,17.43
2023-11-28T15:48:01.793Z,18.67
2023-11-28T15:50:30.350Z,17.07
2023-11-28T15:52:57.762Z,13.83
2023-11-28T15:55:25.267Z,12.90
2023-11-28T15:57:55.210Z,10.57
2023-11-28T16:00:22.449Z,11.60
2023-11-28T16:02:51.729Z,14.00
2023-11-28T16:05:20.556Z,12.83
2023-11-28T16:07:51.033Z,13.70
2023-11-28T16:10:18.270Z,14.77
2023-11-28T16:12:46.313Z,16.27
2023-11-28T16:15:13.602Z,14.60
2023-11-28T16:17:41.826Z,15.90
2023-11-28T16:20:11.034Z,14.17
2023-11-28T16:32:44.184Z,18.50
2023-11-28T16:35:11.551Z,20.07
2023-11-28T16:37:41.045Z,23.43
2023-11-28T16:40:11.506Z,19.50
2023-11-28T16:42:40.085Z,19.07
2023-11-28T16:45:07.681Z,19.30
2023-11-28T16:47:34.937Z,21.70
2023-11-28T16:50:02.131Z,22.40
2023-11-28T16:52:30.960Z,21.43
2023-11-28T16:54:58.021Z,25.50
2023-11-28T16:57:26.572Z,24.23
2023-11-28T16:59:54.367Z,26.77
2023-11-28T17:02:21.658Z,23.53
2023-11-28T17:04:48.834Z,23.30
2023-11-28T17:07:16.133Z,22.93
2023-11-28T17:09:43.200Z,23.07
2023-11-28T17:12:10.208Z,27.53
2023-11-28T17:14:37.296Z,25.97
2023-11-28T17:17:05.441Z,23.13
2023-11-28T17:19:33.104Z,31.37
2023-11-28T17:22:00.231Z,27.20
2023-11-28T17:24:29.006Z,23.00
2023-11-28T17:26:56.345Z,23.03
2023-11-28T17:29:24.460Z,24.43
2023-11-28T17:31:55.162Z,29.87
2023-11-28T17:34:22.509Z,25.97
2023-11-28T17:36:50.550Z,23.70
2023-11-28T17:39:18.964Z,25.33
2023-11-28T17:41:47.099Z,25.33
2023-11-28T17:44:14.188Z,22.67
2023-11-28T17:46:41.371Z,24.67
2023-11-28T17:49:32.831Z,23.93
2023-11-28T17:52:05.363Z,24.60
2023-11-28T17:54:32.490Z,29.50
2023-11-28T17:56:59.639Z,29.97
2023-11-28T17:59:31.291Z,34.53
2023-11-28T18:02:00.120Z,32.70
2023-11-28T18:04:27.234Z,25.47
2023-11-28T18:06:59.252Z,27.47
2023-11-28T18:09:29.829Z,28.20
2023-11-28T18:11:56.877Z,27.77
2023-11-28T18:14:24.061Z,29.73
2023-11-28T18:16:51.391Z,29.83
2023-11-28T18:19:18.477Z,28.63
2023-11-28T18:21:46.296Z,27.87
2023-11-28T18:24:14.689Z,29.43
2023-11-28T18:26:43.591Z,28.60
2023-11-28T18:29:17.565Z,27.27
2023-11-28T18:31:49.082Z,28.07
2023-11-28T18:34:17.852Z,26.50
2023-11-28T18:36:46.164Z,20.13
2023-11-28T18:39:14.987Z,24.00
2023-11-28T18:41:45.077Z,24.03
2023-11-28T18:44:15.460Z,21.83
2023-11-28T18:46:43.324Z,27.27
2023-11-28T18:49:10.448Z,27.60
2023-11-28T18:51:38.376Z,28.53
2023-11-28T18:54:05.856Z,24.83
2023-11-28T18:56:33.780Z,21.63
2023-11-28T18:59:01.068Z,22.13
2023-11-28T19:01:29.423Z,21.83
2023-11-28T19:03:58.111Z,20.17
2023-11-28T19:06:30.772Z,22.30
2023-11-28T19:08:58.853Z,26.50
2023-11-28T19:11:29.934Z,24.97
2023-11-28T19:14:04.448Z,24.30
2023-11-28T19:16:33.999Z,23.57
2023-11-28T19:19:01.419Z,23.87
2023-11-28T19:21:28.532Z,23.63
2023-11-28T19:23:55.582Z,23.10
2023-11-28T19:26:22.963Z,22.63
2023-11-28T19:28:52.287Z,27.13
2023-11-28T19:31:20.040Z,27.20
2023-11-28T19:33:47.369Z,27.03
2023-11-28T19:36:14.424Z,26.43
2023-11-28T19:38:42.539Z,24.30
2023-11-28T19:41:11.517Z,24.57
2023-11-28T19:43:39.613Z,25.50
2023-11-28T19:46:07.794Z,25.20
2023-11-28T19:48:35.115Z,23.33
2023-11-28T19:51:02.513Z,28.97
2023-11-28T19:53:29.566Z,27.33
2023-11-28T19:55:57.852Z,25.10
2023-11-28T19:58:24.896Z,27.00
2023-11-28T20:00:52.133Z,26.97
2023-11-28T20:03:19.484Z,32.10
2023-11-28T20:05:46.933Z,32.10
2023-11-28T20:08:14.511Z,36.03
2023-11-28T20:10:41.609Z,33.17
2023-11-28T20:13:08.626Z,32.33
2023-11-28T20:15:36.789Z,34.43
2023-11-28T20:18:04.062Z,39.10
2023-11-28T20:20:31.427Z,35.47
2023-11-28T20:22:58.577Z,36.77
2023-11-28T20:25:25.652Z,34.00
2023-11-28T20:27:53.099Z,33.57
2023-11-28T20:30:20.673Z,33.77
2023-11-28T20:32:48.200Z,41.53
2023-11-28T20:35:15.395Z,43.00
2023-11-28T20:37:42.683Z,38.57
2023-11-28T20:40:10.636Z,37.60
2023-11-28T20:42:38.525Z,39.80
2023-11-28T20:45:06.351Z,42.47
2023-11-28T20:47:33.962Z,40.27
2023-11-28T20:50:01.232Z,40.63
2023-11-28T20:52:30.384Z,36.77
2023-11-28T20:54:57.403Z,33.50
2023-11-28T20:57:24.425Z,35.27
2023-11-28T20:59:52.409Z,36.67
2023-11-28T21:02:19.841Z,30.10
2023-11-28T21:04:47.143Z,29.03
2023-11-28T21:07:14.192Z,26.47
2023-11-28T21:09:42.920Z,39.43
2023-11-28T21:12:15.793Z,27.67
2023-11-28T21:14:42.983Z,29.90
2023-11-28T21:17:10.133Z,30.07
2023-11-28T21:19:37.321Z,34.00
2023-11-28T21:22:04.666Z,30.40
2023-11-28T21:24:31.734Z,28.57
2023-11-28T21:26:58.847Z,27.63
2023-11-28T21:29:26.207Z,23.40
2023-11-28T21:31:53.436Z,27.63
2023-11-28T21:34:20.544Z,26.43
2023-11-28T21:36:47.844Z,30.17
2023-11-28T21:39:15.955Z,27.10
2023-11-28T21:41:43.077Z,25.10
2023-11-28T21:44:10.186Z,22.93
2023-11-28T21:46:41.174Z,21.03
2023-11-28T21:49:09.623Z,20.50
2023-11-28T21:51:36.697Z,19.57
2023-11-28T21:54:05.153Z,20.23
2023-11-28T21:56:33.511Z,17.37
2023-11-28T21:59:02.034Z,22.13
2023-11-28T22:01:29.101Z,15.30
2023-11-28T22:03:56.532Z,16.97
2023-11-28T22:06:23.784Z,18.97
2023-11-28T22:08:57.277Z,20.20
2023-11-28T22:11:30.418Z,17.50
2023-11-28T22:13:58.259Z,20.33
2023-11-28T22:16:25.324Z,23.37
2023-11-28T22:18:52.364Z,22.63
2023-11-28T22:21:23.041Z,23.77
2023-11-28T22:23:52.822Z,25.17
2023-11-28T22:26:19.919Z,25.10
2023-11-28T22:28:46.928Z,22.70
2023-11-28T22:31:14.007Z,23.00
2023-11-28T22:33:42.228Z,23.53
2023-11-28T22:36:09.561Z,23.37
2023-11-28T22:38:37.000Z,23.73
2023-11-28T22:41:04.153Z,25.70
2023-11-28T22:43:31.324Z,27.93
2023-11-28T22:45:58.370Z,23.53
2023-11-28T22:48:26.707Z,23.73
2023-11-28T22:50:53.844Z,23.37
2023-11-28T22:53:20.928Z,19.13
2023-11-28T22:55:47.982Z,19.73
2023-11-28T22:58:16.025Z,23.53
2023-11-28T23:00:44.196Z,22.40
2023-11-28T23:03:11.333Z,22.17
2023-11-28T23:05:39.501Z,24.87
2023-11-28T23:08:06.546Z,22.67
2023-11-28T23:10:33.603Z,22.63
2023-11-28T23:13:00.690Z,23.73
2023-11-28T23:15:30.184Z,23.40
2023-11-28T23:17:57.418Z,22.60
2023-11-28T23:20:24.525Z,19.43
2023-11-28T23:22:56.032Z,21.87
2023-11-28T23:25:25.934Z,17.27
2023-11-28T23:27:56.479Z,18.43
2023-11-28T23:30:25.570Z,17.37
2023-11-28T23:32:53.017Z,21.67
2023-11-28T23:35:21.283Z,20.53
2023-11-28T23:37:48.330Z,14.13
2023-11-28T23:40:15.456Z,16.47
2023-11-28T23:42:47.189Z,14.47
2023-11-28T23:45:19.579Z,15.40
2023-11-28T23:47:50.008Z,13.97
2023-11-28T23:50:17.636Z,13.63
2023-11-28T23:52:44.842Z,12.80
2023-11-28T23:55:11.962Z,11.63
2023-11-28T23:57:39.037Z,13.43
